createdAt,value
2023-05-13T00:00:18.383Z,0.4514
2023-05-13T00:01:19.711Z,0.4522
2023-05-13T00:02:21.267Z,0.4515
2023-05-13T00:03:22.711Z,0.4478
2023-05-13T00:04:24.134Z,0.4459
2023-05-13T00:05:25.440Z,0.4433
2023-05-13T00:06:26.985Z,0.4435
2023-05-13T00:07:28.286Z,0.4452
2023-05-13T00:08:29.894Z,0.4483
2023-05-13T00:09:31.210Z,0.4468
2023-05-13T00:10:32.665Z,0.4471
2023-05-13T00:11:33.977Z,0.4492
2023-05-13T00:12:35.512Z,0.4491
2023-05-13T00:13:36.919Z,0.4496
2023-05-13T00:14:38.324Z,0.4510
2023-05-13T00:15:39.742Z,0.4522
2023-05-13T00:16:41.299Z,0.4509
2023-05-13T00:17:42.545Z,0.4517
2023-05-13T00:18:44.057Z,0.4556
2023-05-13T00:19:45.407Z,0.4581
2023-05-13T00:20:56.873Z,0.4599
2023-05-13T00:21:57.764Z,0.4603
2023-05-13T00:22:59.164Z,0.4580
2023-05-13T00:24:00.626Z,0.4627
2023-05-13T00:25:02.008Z,0.4641
2023-05-13T00:26:03.376Z,0.4647
2023-05-13T00:27:04.877Z,0.4616
2023-05-13T00:28:06.219Z,0.4622
2023-05-13T00:29:07.755Z,0.4670
2023-05-13T00:30:09.206Z,0.4681
2023-05-13T00:31:10.533Z,0.4667
2023-05-13T00:32:12.019Z,0.4664
2023-05-13T00:33:13.390Z,0.4653
2023-05-13T00:34:14.821Z,0.4639
2023-05-13T00:35:16.247Z,0.4638
2023-05-13T00:36:17.667Z,0.4630
2023-05-13T00:37:19.079Z,0.4598
2023-05-13T00:38:20.467Z,0.4613
2023-05-13T00:39:21.839Z,0.4677
2023-05-13T00:40:23.641Z,0.4698
2023-05-13T00:41:24.779Z,0.4707
2023-05-13T00:42:26.230Z,0.4708
2023-05-13T00:43:27.637Z,0.4710
2023-05-13T00:44:29.111Z,0.4710
2023-05-13T00:45:30.488Z,0.4723
2023-05-13T00:46:31.872Z,0.4709
2023-05-13T00:47:33.312Z,0.4717
2023-05-13T00:48:34.693Z,0.4734
2023-05-13T00:49:36.156Z,0.4749
2023-05-13T00:50:37.618Z,0.4809
2023-05-13T00:51:39.020Z,0.4840
2023-05-13T00:52:40.374Z,0.4844
2023-05-13T00:53:41.833Z,0.4863
2023-05-13T00:54:43.318Z,0.4851
2023-05-13T00:55:44.746Z,0.4839
2023-05-13T00:56:46.187Z,0.4847
2023-05-13T00:57:47.512Z,0.4840
2023-05-13T00:58:48.902Z,0.4821
2023-05-13T00:59:50.376Z,0.4804
2023-05-13T01:00:51.752Z,0.4815
2023-05-13T01:01:53.241Z,0.4794
2023-05-13T01:02:54.799Z,0.4794
2023-05-13T01:03:56.031Z,0.4789
2023-05-13T01:04:57.516Z,0.4797
2023-05-13T01:05:58.947Z,0.4769
2023-05-13T01:07:00.365Z,0.4753
2023-05-13T01:08:01.644Z,0.4754
2023-05-13T01:09:03.179Z,0.4729
2023-05-13T01:10:04.580Z,0.4734
2023-05-13T01:11:06.025Z,0.4693
2023-05-13T01:12:07.458Z,0.4703
2023-05-13T01:13:08.883Z,0.4698
2023-05-13T01:14:10.275Z,0.4715
2023-05-13T01:15:11.699Z,0.4739
2023-05-13T01:16:13.056Z,0.4737
2023-05-13T01:17:14.570Z,0.4726
2023-05-13T01:18:16.001Z,0.4712
2023-05-13T01:19:17.503Z,0.4744
2023-05-13T01:20:18.989Z,0.4689
2023-05-13T01:21:20.273Z,0.4669
2023-05-13T01:22:21.799Z,0.4658
2023-05-13T01:23:23.227Z,0.4671
2023-05-13T01:24:24.658Z,0.4642
2023-05-13T01:25:26.011Z,0.4677
2023-05-13T01:26:27.475Z,0.4673
2023-05-13T01:27:28.953Z,0.4655
2023-05-13T01:28:30.391Z,0.4640
2023-05-13T01:29:31.756Z,0.4659
2023-05-13T01:30:33.150Z,0.4646
2023-05-13T01:31:34.586Z,0.4633
2023-05-13T01:32:36.128Z,0.4624
2023-05-13T01:33:37.452Z,0.4607
2023-05-13T01:34:38.856Z,0.4579
2023-05-13T01:35:40.246Z,0.4584
2023-05-13T01:36:41.725Z,0.4576
2023-05-13T01:37:43.131Z,0.4587
2023-05-13T01:38:44.597Z,0.4603
2023-05-13T01:39:45.968Z,0.4595
2023-05-13T01:40:47.495Z,0.4599
2023-05-13T01:41:48.885Z,0.4572
2023-05-13T01:42:50.337Z,0.4578
2023-05-13T01:43:51.681Z,0.4570
2023-05-13T01:44:53.193Z,0.4608
2023-05-13T01:45:54.507Z,0.4633
2023-05-13T01:46:55.960Z,0.4615
2023-05-13T01:47:57.550Z,0.4623
2023-05-13T01:48:58.849Z,0.4628
2023-05-13T01:50:00.310Z,0.4634
2023-05-13T01:51:01.655Z,0.4610
2023-05-13T01:52:03.113Z,0.4593
2023-05-13T01:53:04.500Z,0.4610
2023-05-13T01:54:05.933Z,0.4622
2023-05-13T01:55:07.265Z,0.4639
2023-05-13T01:56:08.736Z,0.4663
2023-05-13T01:57:10.240Z,0.4679
2023-05-13T01:58:11.712Z,0.4717
2023-05-13T01:59:13.039Z,0.4719
2023-05-13T02:00:14.453Z,0.4699
2023-05-13T02:01:16.046Z,0.4687
2023-05-13T02:02:17.381Z,0.4657
2023-05-13T02:03:18.955Z,0.4657
2023-05-13T02:04:20.248Z,0.4665
2023-05-13T02:05:21.586Z,0.4673
2023-05-13T02:06:23.023Z,0.4668
2023-05-13T02:07:24.453Z,0.4642
2023-05-13T02:08:25.836Z,0.4657
2023-05-13T02:09:27.317Z,0.4660
2023-05-13T02:10:28.708Z,0.4643
2023-05-13T02:11:30.240Z,0.4650
2023-05-13T02:12:31.626Z,0.4674
2023-05-13T02:13:33.044Z,0.4632
2023-05-13T02:14:34.350Z,0.4606
2023-05-13T02:15:35.875Z,0.4596
2023-05-13T02:16:37.268Z,0.4595
2023-05-13T02:17:38.788Z,0.4614
2023-05-13T02:18:40.176Z,0.4621
2023-05-13T02:19:41.580Z,0.4605
2023-05-13T02:20:42.941Z,0.4595
2023-05-13T02:21:44.426Z,0.4578
2023-05-13T02:22:45.801Z,0.4541
2023-05-13T02:23:47.311Z,0.4577
2023-05-13T02:24:48.709Z,0.4584
2023-05-13T02:25:50.090Z,0.4569
2023-05-13T02:26:51.501Z,0.4530
2023-05-13T02:27:52.841Z,0.4561
2023-05-13T02:28:55.371Z,0.4583
2023-05-13T02:29:55.841Z,0.4637
2023-05-13T02:30:57.279Z,0.4619
2023-05-13T02:31:58.623Z,0.4617
2023-05-13T02:32:59.991Z,0.4644
2023-05-13T02:34:01.530Z,0.4645
2023-05-13T02:35:02.953Z,0.4607
2023-05-13T02:36:04.306Z,0.4602
2023-05-13T02:37:05.822Z,0.4622
2023-05-13T02:38:07.073Z,0.4634
2023-05-13T02:39:08.665Z,0.4640
2023-05-13T02:40:10.036Z,0.4623
2023-05-13T02:41:11.503Z,0.4625
2023-05-13T02:42:12.882Z,0.4613
2023-05-13T02:43:14.322Z,0.4596
2023-05-13T02:44:15.756Z,0.4629
2023-05-13T02:45:17.170Z,0.4636
2023-05-13T02:46:18.571Z,0.4676
2023-05-13T02:47:19.919Z,0.4737
2023-05-13T02:48:21.455Z,0.4764
2023-05-13T02:49:22.884Z,0.4775
2023-05-13T02:50:24.477Z,0.4790
2023-05-13T02:51:25.692Z,0.4779
2023-05-13T02:52:27.155Z,0.4776
2023-05-13T02:53:28.709Z,0.4721
2023-05-13T02:54:29.943Z,0.4732
2023-05-13T02:55:31.512Z,0.4769
2023-05-13T02:56:32.966Z,0.4749
2023-05-13T02:57:34.274Z,0.4715
2023-05-13T02:58:35.726Z,0.4714
2023-05-13T02:59:37.131Z,0.4692
2023-05-13T03:00:38.595Z,0.4708
2023-05-13T03:01:39.959Z,0.4679
2023-05-13T03:02:41.405Z,0.4642
2023-05-13T03:03:42.811Z,0.4630
2023-05-13T03:04:44.286Z,0.4624
2023-05-13T03:05:45.728Z,0.4624
2023-05-13T03:06:47.162Z,0.4618
2023-05-13T03:07:48.519Z,0.4675
2023-05-13T03:08:49.985Z,0.4689
2023-05-13T03:09:51.376Z,0.4723
2023-05-13T03:10:52.884Z,0.4710
2023-05-13T03:11:54.164Z,0.4647
2023-05-13T03:12:55.695Z,0.4651
2023-05-13T03:13:57.132Z,0.4646
2023-05-13T03:14:58.545Z,0.4677
2023-05-13T03:15:59.946Z,0.4658
2023-05-13T03:17:01.358Z,0.4643
2023-05-13T03:18:02.743Z,0.4649
2023-05-13T03:19:04.271Z,0.4671
2023-05-13T03:20:06.045Z,0.4694
2023-05-13T03:21:07.076Z,0.4754
2023-05-13T03:22:08.542Z,0.4750
2023-05-13T03:23:09.903Z,0.4738
2023-05-13T03:24:11.242Z,0.4757
2023-05-13T03:25:12.830Z,0.4785
2023-05-13T03:26:14.206Z,0.4780
2023-05-13T03:27:15.497Z,0.4783
2023-05-13T03:28:17.022Z,0.4789
2023-05-13T03:29:18.555Z,0.4800
2023-05-13T03:30:20.026Z,0.4795
2023-05-13T03:31:21.339Z,0.4782
2023-05-13T03:32:22.771Z,0.4809
2023-05-13T03:33:24.127Z,0.4784
2023-05-13T03:34:25.616Z,0.4788
2023-05-13T03:35:27.020Z,0.4790
2023-05-13T03:36:28.576Z,0.4816
2023-05-13T03:37:29.794Z,0.4837
2023-05-13T03:38:31.310Z,0.4829
2023-05-13T03:39:32.743Z,0.4783
2023-05-13T03:40:34.235Z,0.4748
2023-05-13T03:41:35.674Z,0.4712
2023-05-13T03:42:37.011Z,0.4702
2023-05-13T03:43:38.448Z,0.4640
2023-05-13T03:44:39.933Z,0.4637
2023-05-13T03:45:41.344Z,0.4631
2023-05-13T03:46:42.803Z,0.4650
2023-05-13T03:47:44.166Z,0.4640
2023-05-13T03:48:45.563Z,0.4625
2023-05-13T03:49:46.950Z,0.4666
2023-05-13T03:50:48.473Z,0.4668
2023-05-13T03:51:49.875Z,0.4678
2023-05-13T03:52:51.266Z,0.4685
2023-05-13T03:53:52.749Z,0.4666
2023-05-13T03:54:54.133Z,0.4673
2023-05-13T03:55:55.579Z,0.4622
2023-05-13T03:56:56.998Z,0.4641
2023-05-13T03:57:58.415Z,0.4647
2023-05-13T03:58:59.912Z,0.4690
2023-05-13T04:00:01.269Z,0.4703
2023-05-13T04:01:02.774Z,0.4659
2023-05-13T04:02:04.148Z,0.4663
2023-05-13T04:03:05.629Z,0.4688
2023-05-13T04:04:06.928Z,0.4669
2023-05-13T04:05:08.518Z,0.4677
2023-05-13T04:06:09.816Z,0.4681
2023-05-13T04:07:11.333Z,0.4727
2023-05-13T04:08:12.645Z,0.4720
2023-05-13T04:09:14.088Z,0.4709
2023-05-13T04:10:15.949Z,0.4718
2023-05-13T04:11:16.968Z,0.4719
2023-05-13T04:12:18.402Z,0.4721
2023-05-13T04:13:19.862Z,0.4736
2023-05-13T04:14:21.205Z,0.4758
2023-05-13T04:15:22.675Z,0.4776
2023-05-13T04:16:24.205Z,0.4794
2023-05-13T04:17:25.587Z,0.4848
2023-05-13T04:18:26.966Z,0.4860
2023-05-13T04:19:28.377Z,0.4886
2023-05-13T04:20:29.781Z,0.4874
2023-05-13T04:21:31.239Z,0.4787
2023-05-13T04:22:33.350Z,0.4784
2023-05-13T04:23:34.085Z,0.4773
2023-05-13T04:24:35.499Z,0.4779
2023-05-13T04:25:36.919Z,0.4769
2023-05-13T04:26:38.412Z,0.4750
2023-05-13T04:27:39.896Z,0.4759
2023-05-13T04:28:41.132Z,0.4771
2023-05-13T04:29:42.552Z,0.4779
2023-05-13T04:30:44.122Z,0.4773
2023-05-13T04:31:45.649Z,0.4757
2023-05-13T04:32:47.039Z,0.4707
2023-05-13T04:33:48.402Z,0.4718
2023-05-13T04:34:49.807Z,0.4752
2023-05-13T04:35:51.216Z,0.4735
2023-05-13T04:36:52.595Z,0.4736
2023-05-13T04:37:54.170Z,0.4697
2023-05-13T04:38:55.513Z,0.4663
2023-05-13T04:39:56.923Z,0.4649
2023-05-13T04:40:58.345Z,0.4648
2023-05-13T04:41:59.828Z,0.4626
2023-05-13T04:43:01.264Z,0.4632
2023-05-13T04:44:02.621Z,0.4692
2023-05-13T04:45:04.122Z,0.4724
2023-05-13T04:46:05.404Z,0.4728
2023-05-13T04:47:06.990Z,0.4724
2023-05-13T04:48:08.323Z,0.4735
2023-05-13T04:49:09.779Z,0.4762
2023-05-13T04:50:11.276Z,0.4839
2023-05-13T04:51:12.660Z,0.4883
2023-05-13T04:52:14.128Z,0.4889
2023-05-13T04:53:15.522Z,0.4892
2023-05-13T04:54:16.920Z,0.4881
2023-05-13T04:55:18.376Z,0.4880
2023-05-13T04:56:19.808Z,0.4887
2023-05-13T04:57:21.194Z,0.4902
2023-05-13T04:58:22.675Z,0.4861
2023-05-13T04:59:24.138Z,0.4841
2023-05-13T05:00:25.477Z,0.4823
2023-05-13T05:01:27.019Z,0.4822
2023-05-13T05:02:29.421Z,0.4885
2023-05-13T05:03:29.882Z,0.4930
2023-05-13T05:04:31.194Z,0.4896
2023-05-13T05:05:32.549Z,0.4897
2023-05-13T05:06:34.045Z,0.4902
2023-05-13T05:07:35.535Z,0.4901
2023-05-13T05:08:36.955Z,0.4893
2023-05-13T05:09:38.399Z,0.4899
2023-05-13T05:10:39.844Z,0.4908
2023-05-13T05:11:41.232Z,0.4895
2023-05-13T05:12:42.684Z,0.4830
2023-05-13T05:13:44.164Z,0.4795
2023-05-13T05:14:45.518Z,0.4746
2023-05-13T05:15:46.894Z,0.4720
2023-05-13T05:16:48.543Z,0.4697
2023-05-13T05:17:49.904Z,0.4728
2023-05-13T05:18:51.282Z,0.4762
2023-05-13T05:19:52.724Z,0.4749
2023-05-13T05:20:54.277Z,0.4746
2023-05-13T05:21:55.508Z,0.4734
2023-05-13T05:22:57.078Z,0.4707
2023-05-13T05:23:58.522Z,0.4724
2023-05-13T05:24:59.892Z,0.4734
2023-05-13T05:26:11.325Z,0.4786
2023-05-13T05:27:02.689Z,0.4783
2023-05-13T05:28:04.164Z,0.4746
2023-05-13T05:29:05.665Z,0.4713
2023-05-13T05:30:07.018Z,0.4696
2023-05-13T05:31:08.520Z,0.4711
2023-05-13T05:32:09.852Z,0.4685
2023-05-13T05:33:11.199Z,0.4676
2023-05-13T05:34:12.702Z,0.4635
2023-05-13T05:35:14.104Z,0.4665
2023-05-13T05:36:15.537Z,0.4661
2023-05-13T05:37:16.973Z,0.4664
2023-05-13T05:38:19.387Z,0.4690
2023-05-13T05:39:19.880Z,0.4689
2023-05-13T05:40:21.489Z,0.4678
2023-05-13T05:41:22.687Z,0.4670
2023-05-13T05:42:24.094Z,0.4688
2023-05-13T05:43:25.397Z,0.4684
2023-05-13T05:44:26.965Z,0.4705
2023-05-13T05:45:28.372Z,0.4765
2023-05-13T05:46:29.828Z,0.4744
2023-05-13T05:47:31.234Z,0.4760
2023-05-13T05:48:34.354Z,0.4720
2023-05-13T05:49:34.105Z,0.4750
2023-05-13T05:50:35.521Z,0.4786
2023-05-13T05:51:36.909Z,0.4792
2023-05-13T05:52:38.393Z,0.4800
2023-05-13T05:53:39.790Z,0.4805
2023-05-13T05:54:41.211Z,0.4831
2023-05-13T05:55:42.582Z,0.4866
2023-05-13T05:56:44.090Z,0.4872
2023-05-13T05:57:45.483Z,0.4872
2023-05-13T05:58:46.911Z,0.4818
2023-05-13T05:59:48.381Z,0.4769
2023-05-13T06:00:49.820Z,0.4721
2023-05-13T06:01:51.210Z,0.4740
2023-05-13T06:02:52.701Z,0.4729
2023-05-13T06:03:55.048Z,0.4699
2023-05-13T06:04:55.490Z,0.4718
2023-05-13T06:05:56.827Z,0.4738
2023-05-13T06:06:58.340Z,0.4720
2023-05-13T06:07:59.747Z,0.4719
2023-05-13T06:09:01.170Z,0.4711
2023-05-13T06:10:02.541Z,0.4774
2023-05-13T06:11:03.893Z,0.4775
2023-05-13T06:12:05.383Z,0.4777
2023-05-13T06:13:06.911Z,0.4823
2023-05-13T06:14:08.336Z,0.4776
2023-05-13T06:15:09.811Z,0.4785
2023-05-13T06:16:11.052Z,0.4795
2023-05-13T06:17:12.568Z,0.4825
2023-05-13T06:18:14.009Z,0.4888
2023-05-13T06:19:15.457Z,0.4883
2023-05-13T06:20:16.836Z,0.4911
2023-05-13T06:21:18.309Z,0.4889
2023-05-13T06:22:19.626Z,0.4906
2023-05-13T06:23:21.090Z,0.4922
2023-05-13T06:24:22.526Z,0.4954
2023-05-13T06:25:23.986Z,0.4980
2023-05-13T06:26:25.332Z,0.4974
2023-05-13T06:27:26.806Z,0.5002
2023-05-13T06:28:28.182Z,0.4997
2023-05-13T06:29:29.645Z,0.5004
2023-05-13T06:30:31.029Z,0.4946
2023-05-13T06:31:32.463Z,0.4909
2023-05-13T06:32:33.887Z,0.4881
2023-05-13T06:33:35.368Z,0.4848
2023-05-13T06:34:36.760Z,0.4876
2023-05-13T06:35:38.211Z,0.4897
2023-05-13T06:36:39.516Z,0.4894
2023-05-13T06:37:40.969Z,0.4921
2023-05-13T06:38:42.383Z,0.4896
2023-05-13T06:39:43.878Z,0.4878
2023-05-13T06:40:45.293Z,0.4861
2023-05-13T06:41:46.686Z,0.4861
2023-05-13T06:42:48.126Z,0.4862
2023-05-13T06:43:49.463Z,0.4866
2023-05-13T06:44:50.983Z,0.4852
2023-05-13T06:45:52.354Z,0.4848
2023-05-13T06:46:53.720Z,0.4870
2023-05-13T06:47:55.185Z,0.4892
2023-05-13T06:48:56.616Z,0.4883
2023-05-13T06:49:58.086Z,0.4891
2023-05-13T06:50:59.600Z,0.4916
2023-05-13T06:52:00.908Z,0.4919
2023-05-13T06:53:02.282Z,0.4911
2023-05-13T06:54:03.734Z,0.4952
2023-05-13T06:55:05.226Z,0.4945
2023-05-13T06:56:06.619Z,0.4948
2023-05-13T06:57:07.973Z,0.4903
2023-05-13T06:58:09.432Z,0.4900
2023-05-13T06:59:10.878Z,0.4900
2023-05-13T07:00:12.264Z,0.4847
2023-05-13T07:01:13.716Z,0.4861
2023-05-13T07:02:15.123Z,0.4846
2023-05-13T07:03:16.627Z,0.4795
2023-05-13T07:04:18.047Z,0.4772
2023-05-13T07:05:19.415Z,0.4767
2023-05-13T07:06:20.855Z,0.4797
2023-05-13T07:07:22.203Z,0.4799
2023-05-13T07:08:23.724Z,0.4803
2023-05-13T07:09:25.073Z,0.4825
2023-05-13T07:10:26.546Z,0.4817
2023-05-13T07:11:28.005Z,0.4829
2023-05-13T07:12:29.444Z,0.4813
2023-05-13T07:13:30.805Z,0.4792
2023-05-13T07:14:32.205Z,0.4796
2023-05-13T07:15:33.608Z,0.4768
2023-05-13T07:16:35.110Z,0.4757
2023-05-13T07:17:36.533Z,0.4750
2023-05-13T07:18:37.948Z,0.4775
2023-05-13T07:19:39.297Z,0.4792
2023-05-13T07:20:40.774Z,0.4772
2023-05-13T07:21:42.237Z,0.4785
2023-05-13T07:22:43.591Z,0.4792
2023-05-13T07:23:45.057Z,0.4786
2023-05-13T07:24:46.466Z,0.4747
2023-05-13T07:25:47.917Z,0.4737
2023-05-13T07:26:49.377Z,0.4753
2023-05-13T07:27:50.726Z,0.4778
2023-05-13T07:28:52.143Z,0.4767
2023-05-13T07:29:53.479Z,0.4758
2023-05-13T07:30:55.153Z,0.4761
2023-05-13T07:31:56.493Z,0.4767
2023-05-13T07:32:58.103Z,0.4785
2023-05-13T07:33:59.248Z,0.4800
2023-05-13T07:35:00.712Z,0.4798
2023-05-13T07:36:02.063Z,0.4755
2023-05-13T07:37:03.556Z,0.4754
2023-05-13T07:38:04.971Z,0.4768
2023-05-13T07:39:07.108Z,0.4785
2023-05-13T07:40:07.773Z,0.4775
2023-05-13T07:41:09.281Z,0.4768
2023-05-13T07:42:10.728Z,0.4757
2023-05-13T07:43:12.209Z,0.4747
2023-05-13T07:44:13.384Z,0.4738
2023-05-13T07:45:15.020Z,0.4726
2023-05-13T07:46:16.280Z,0.4719
2023-05-13T07:47:17.839Z,0.4745
2023-05-13T07:48:19.293Z,0.4757
2023-05-13T07:49:20.516Z,0.4763
2023-05-13T07:50:22.052Z,0.4763
2023-05-13T07:51:23.511Z,0.4771
2023-05-13T07:52:24.897Z,0.4768
2023-05-13T07:53:26.339Z,0.4769
2023-05-13T07:54:27.762Z,0.4762
2023-05-13T07:55:29.183Z,0.4752
2023-05-13T07:56:30.630Z,0.4742
2023-05-13T07:57:32.098Z,0.4717
2023-05-13T07:58:33.360Z,0.4732
2023-05-13T07:59:34.926Z,0.4748
2023-05-13T08:00:36.370Z,0.4743
2023-05-13T08:01:37.760Z,0.4739
2023-05-13T08:02:39.318Z,0.4763
2023-05-13T08:03:40.818Z,0.4784
2023-05-13T08:04:42.092Z,0.4785
2023-05-13T08:05:43.398Z,0.4775
2023-05-13T08:06:44.839Z,0.4793
2023-05-13T08:07:46.321Z,0.4792
2023-05-13T08:08:47.607Z,0.4779
2023-05-13T08:09:49.105Z,0.4789
2023-05-13T08:10:50.560Z,0.4792
2023-05-13T08:11:51.994Z,0.4780
2023-05-13T08:12:53.298Z,0.4782
2023-05-13T08:13:54.856Z,0.4802
2023-05-13T08:14:56.262Z,0.4803
2023-05-13T08:15:57.678Z,0.4817
2023-05-13T08:16:59.047Z,0.4834
2023-05-13T08:18:00.660Z,0.4840
2023-05-13T08:19:02.011Z,0.4833
2023-05-13T08:20:03.851Z,0.4813
2023-05-13T08:21:04.877Z,0.4815
2023-05-13T08:22:06.191Z,0.4818
2023-05-13T08:23:07.648Z,0.4799
2023-05-13T08:24:09.131Z,0.4774
2023-05-13T08:25:10.457Z,0.4758
2023-05-13T08:26:11.913Z,0.4754
2023-05-13T08:27:13.411Z,0.4781
2023-05-13T08:28:14.823Z,0.4778
2023-05-13T08:29:16.165Z,0.4742
2023-05-13T08:30:17.607Z,0.4742
2023-05-13T08:31:19.068Z,0.4755
2023-05-13T08:32:20.472Z,0.4756
2023-05-13T08:33:21.876Z,0.4781
2023-05-13T08:34:23.987Z,0.4785
2023-05-13T08:35:24.854Z,0.4797
2023-05-13T08:36:26.193Z,0.4799
2023-05-13T08:37:27.543Z,0.4786
2023-05-13T08:38:29.011Z,0.4755
2023-05-13T08:39:30.457Z,0.4735
2023-05-13T08:40:31.803Z,0.4719
2023-05-13T08:41:33.213Z,0.4741
2023-05-13T08:42:34.642Z,0.4745
2023-05-13T08:43:36.104Z,0.4730
2023-05-13T08:44:37.590Z,0.4712
2023-05-13T08:45:38.947Z,0.4705
2023-05-13T08:46:40.411Z,0.4704
2023-05-13T08:47:41.673Z,0.4709
2023-05-13T08:48:43.263Z,0.4687
2023-05-13T08:49:44.690Z,0.4671
2023-05-13T08:50:46.027Z,0.4669
2023-05-13T08:51:47.610Z,0.4693
2023-05-13T08:52:48.879Z,0.4704
2023-05-13T08:53:50.315Z,0.4688
2023-05-13T08:54:51.751Z,0.4733
2023-05-13T08:55:53.176Z,0.4787
2023-05-13T08:56:54.593Z,0.4760
2023-05-13T08:57:55.990Z,0.4763
2023-05-13T08:58:57.475Z,0.4779
2023-05-13T08:59:58.874Z,0.4744
2023-05-13T09:01:00.371Z,0.4730
2023-05-13T09:02:01.702Z,0.4747
2023-05-13T09:03:03.147Z,0.4753
2023-05-13T09:04:04.634Z,0.4775
2023-05-13T09:05:05.996Z,0.4752
2023-05-13T09:06:07.397Z,0.4712
2023-05-13T09:07:08.796Z,0.4689
2023-05-13T09:08:10.311Z,0.4681
2023-05-13T09:09:11.676Z,0.4674
2023-05-13T09:10:13.153Z,0.4691
2023-05-13T09:11:14.451Z,0.4688
2023-05-13T09:12:15.920Z,0.4679
2023-05-13T09:13:17.336Z,0.4653
2023-05-13T09:14:18.881Z,0.4672
2023-05-13T09:15:20.437Z,0.4685
2023-05-13T09:16:21.646Z,0.4628
2023-05-13T09:17:22.986Z,0.4637
2023-05-13T09:18:24.838Z,0.4626
2023-05-13T09:19:25.945Z,0.4632
2023-05-13T09:20:27.342Z,0.4650
2023-05-13T09:21:28.803Z,0.4666
2023-05-13T09:22:30.115Z,0.4686
2023-05-13T09:23:31.657Z,0.4707
2023-05-13T09:24:33.141Z,0.4696
2023-05-13T09:25:34.523Z,0.4724
2023-05-13T09:26:35.936Z,0.4766
2023-05-13T09:27:37.358Z,0.4769
2023-05-13T09:28:38.829Z,0.4750
2023-05-13T09:29:40.211Z,0.4734
2023-05-13T09:30:43.299Z,0.4743
2023-05-13T09:31:43.020Z,0.4758
2023-05-13T09:32:44.494Z,0.4836
2023-05-13T09:33:45.788Z,0.4846
2023-05-13T09:34:47.402Z,0.4809
2023-05-13T09:35:48.800Z,0.4748
2023-05-13T09:36:51.242Z,0.4740
2023-05-13T09:37:51.565Z,0.4752
2023-05-13T09:38:53.063Z,0.4772
2023-05-13T09:39:54.464Z,0.4766
2023-05-13T09:40:56.140Z,0.4775
2023-05-13T09:41:57.306Z,0.4801
2023-05-13T09:42:58.686Z,0.4752
2023-05-13T09:44:00.155Z,0.4705
2023-05-13T09:45:01.601Z,0.4669
2023-05-13T09:46:02.997Z,0.4675
2023-05-13T09:47:04.408Z,0.4679
2023-05-13T09:48:05.870Z,0.4694
2023-05-13T09:49:07.300Z,0.4669
2023-05-13T09:50:08.728Z,0.4646
2023-05-13T09:51:10.172Z,0.4661
2023-05-13T09:52:11.670Z,0.4670
2023-05-13T09:53:12.941Z,0.4659
2023-05-13T09:54:14.338Z,0.4677
2023-05-13T09:55:15.893Z,0.4713
2023-05-13T09:56:17.257Z,0.4709
2023-05-13T09:57:18.618Z,0.4691
2023-05-13T09:58:20.017Z,0.4655
2023-05-13T09:59:21.529Z,0.4669
2023-05-13T10:00:32.094Z,0.4677
2023-05-13T10:01:24.408Z,0.4662
2023-05-13T10:02:25.818Z,0.4663
2023-05-13T10:03:27.169Z,0.4696
2023-05-13T10:04:28.672Z,0.4696
2023-05-13T10:05:30.111Z,0.4714
2023-05-13T10:06:31.517Z,0.4715
2023-05-13T10:07:32.893Z,0.4707
2023-05-13T10:08:34.309Z,0.4695
2023-05-13T10:09:35.677Z,0.4715
2023-05-13T10:10:37.236Z,0.4681
2023-05-13T10:11:38.674Z,0.4647
2023-05-13T10:12:40.067Z,0.4648
2023-05-13T10:13:41.421Z,0.4637
2023-05-13T10:14:42.964Z,0.4584
2023-05-13T10:15:44.336Z,0.4566
2023-05-13T10:16:45.773Z,0.4564
2023-05-13T10:17:47.127Z,0.4585
2023-05-13T10:18:48.562Z,0.4537
2023-05-13T10:19:50.025Z,0.4524
2023-05-13T10:20:51.247Z,0.4459
2023-05-13T10:21:52.854Z,0.4400
2023-05-13T10:22:54.210Z,0.4397
2023-05-13T10:23:55.602Z,0.4438
2023-05-13T10:24:57.100Z,0.4455
2023-05-13T10:25:58.488Z,0.4465
2023-05-13T10:26:59.928Z,0.4474
2023-05-13T10:28:01.342Z,0.4486
2023-05-13T10:29:02.713Z,0.4498
2023-05-13T10:30:04.205Z,0.4523
2023-05-13T10:31:05.642Z,0.4535
2023-05-13T10:32:07.062Z,0.4555
2023-05-13T10:33:08.472Z,0.4576
2023-05-13T10:34:09.805Z,0.4587
2023-05-13T10:35:11.283Z,0.4594
2023-05-13T10:36:12.689Z,0.4587
2023-05-13T10:37:14.151Z,0.4552
2023-05-13T10:38:15.599Z,0.4501
2023-05-13T10:39:17.010Z,0.4512
2023-05-13T10:40:18.385Z,0.4468
2023-05-13T10:41:19.838Z,0.4456
2023-05-13T10:42:21.230Z,0.4472
2023-05-13T10:43:22.643Z,0.4439
2023-05-13T10:44:24.079Z,0.4423
2023-05-13T10:45:25.578Z,0.4393
2023-05-13T10:46:26.951Z,0.4394
2023-05-13T10:47:28.539Z,0.4382
2023-05-13T10:48:29.744Z,0.4361
2023-05-13T10:49:31.309Z,0.4354
2023-05-13T10:50:32.641Z,0.4360
2023-05-13T10:51:34.131Z,0.4363
2023-05-13T10:52:35.421Z,0.4372
2023-05-13T10:53:36.772Z,0.4398
2023-05-13T10:54:38.293Z,0.4402
2023-05-13T10:55:39.656Z,0.4382
2023-05-13T10:56:42.108Z,0.4376
2023-05-13T10:57:42.547Z,0.4385
2023-05-13T10:58:43.996Z,0.4385
2023-05-13T10:59:45.392Z,0.4392
2023-05-13T11:00:46.731Z,0.4386
2023-05-13T11:01:48.380Z,0.4374
2023-05-13T11:02:49.886Z,0.4354
2023-05-13T11:03:51.089Z,0.4365
2023-05-13T11:04:52.647Z,0.4364
2023-05-13T11:05:53.947Z,0.4352
2023-05-13T11:06:55.464Z,0.4347
2023-05-13T11:07:56.877Z,0.4353
2023-05-13T11:08:58.303Z,0.4358
2023-05-13T11:09:59.697Z,0.4386
2023-05-13T11:11:01.166Z,0.4431
2023-05-13T11:12:02.531Z,0.4450
2023-05-13T11:13:03.936Z,0.4453
2023-05-13T11:14:07.053Z,0.4449
2023-05-13T11:15:06.789Z,0.4455
2023-05-13T11:16:08.239Z,0.4422
2023-05-13T11:17:09.770Z,0.4438
2023-05-13T11:18:11.161Z,0.4468
2023-05-13T11:19:12.612Z,0.4462
2023-05-13T11:20:13.895Z,0.4442
2023-05-13T11:21:15.350Z,0.4448
2023-05-13T11:22:16.770Z,0.4465
2023-05-13T11:23:18.209Z,0.4477
2023-05-13T11:24:19.575Z,0.4517
2023-05-13T11:25:21.086Z,0.4483
2023-05-13T11:26:22.411Z,0.4477
2023-05-13T11:27:23.878Z,0.4491
2023-05-13T11:28:25.295Z,0.4514
2023-05-13T11:29:26.728Z,0.4504
2023-05-13T11:30:28.430Z,0.4501
2023-05-13T11:31:29.565Z,0.4474
2023-05-13T11:32:30.957Z,0.4493
2023-05-13T11:33:32.501Z,0.4513
2023-05-13T11:34:33.809Z,0.4552
2023-05-13T11:35:35.288Z,0.4552
2023-05-13T11:36:36.631Z,0.4552
2023-05-13T11:37:38.077Z,0.4532
2023-05-13T11:38:39.490Z,0.4516
2023-05-13T11:39:40.967Z,0.4540
2023-05-13T11:40:42.314Z,0.4545
2023-05-13T11:41:43.809Z,0.4565
2023-05-13T11:42:45.181Z,0.4589
2023-05-13T11:43:46.520Z,0.4617
2023-05-13T11:44:47.965Z,0.4626
2023-05-13T11:45:49.519Z,0.4628
2023-05-13T11:46:50.823Z,0.4639
2023-05-13T11:47:52.275Z,0.4638
2023-05-13T11:48:53.719Z,0.4661
2023-05-13T11:49:55.137Z,0.4673
2023-05-13T11:50:56.462Z,0.4644
2023-05-13T11:51:58.003Z,0.4642
2023-05-13T11:52:59.269Z,0.4629
2023-05-13T11:54:00.752Z,0.4608
2023-05-13T11:55:02.217Z,0.4593
2023-05-13T11:56:03.607Z,0.4575
2023-05-13T11:57:05.053Z,0.4576
2023-05-13T11:58:06.470Z,0.4578
2023-05-13T11:59:07.869Z,0.4610
2023-05-13T12:00:09.329Z,0.4616
2023-05-13T12:01:10.737Z,0.4565
2023-05-13T12:02:12.260Z,0.4563
2023-05-13T12:03:13.678Z,0.4586
2023-05-13T12:04:15.117Z,0.4572
2023-05-13T12:05:16.440Z,0.4593
2023-05-13T12:06:17.805Z,0.4615
2023-05-13T12:07:19.308Z,0.4635
2023-05-13T12:08:22.440Z,0.4636
2023-05-13T12:09:22.202Z,0.4639
2023-05-13T12:10:23.544Z,0.4615
2023-05-13T12:11:24.933Z,0.4600
2023-05-13T12:12:26.340Z,0.4559
2023-05-13T12:13:27.898Z,0.4542
2023-05-13T12:14:29.278Z,0.4590
2023-05-13T12:15:30.706Z,0.4599
2023-05-13T12:16:32.364Z,0.4581
2023-05-13T12:17:33.474Z,0.4568
2023-05-13T12:18:34.982Z,0.4547
2023-05-13T12:19:36.242Z,0.4585
2023-05-13T12:20:37.828Z,0.4596
2023-05-13T12:21:39.211Z,0.4605
2023-05-13T12:22:40.614Z,0.4602
2023-05-13T12:23:42.014Z,0.4604
2023-05-13T12:24:43.518Z,0.4649
2023-05-13T12:25:45.733Z,0.4623
2023-05-13T12:26:46.283Z,0.4600
2023-05-13T12:27:47.714Z,0.4593
2023-05-13T12:28:49.186Z,0.4579
2023-05-13T12:29:50.618Z,0.4613
2023-05-13T12:30:52.054Z,0.4606
2023-05-13T12:31:53.470Z,0.4636
2023-05-13T12:32:55.152Z,0.4652
2023-05-13T12:33:56.284Z,0.4613
2023-05-13T12:34:57.736Z,0.4606
2023-05-13T12:35:59.084Z,0.4614
2023-05-13T12:37:00.549Z,0.4660
2023-05-13T12:38:01.931Z,0.4668
2023-05-13T12:39:03.435Z,0.4677
2023-05-13T12:40:04.846Z,0.4702
2023-05-13T12:41:06.351Z,0.4703
2023-05-13T12:42:07.685Z,0.4684
2023-05-13T12:43:09.340Z,0.4695
2023-05-13T12:44:10.680Z,0.4705
2023-05-13T12:45:11.968Z,0.4698
2023-05-13T12:46:13.508Z,0.4704